createdAt,value
2022-11-29T00:01:11.259Z,99770.53
2022-11-29T00:03:38.777Z,99762.25
2022-11-29T00:06:08.620Z,99777.63
2022-11-29T00:08:36.879Z,99778.28
2022-11-29T00:11:05.901Z,99774.47
2022-11-29T00:13:33.317Z,99780.28
2022-11-29T00:16:04.672Z,99783.13
2022-11-29T00:18:32.334Z,99779.44
2022-11-29T00:20:59.962Z,99770.66
2022-11-29T00:23:28.800Z,99775.16
2022-11-29T00:25:57.217Z,99784.03
2022-11-29T00:28:24.656Z,99778.75
2022-11-29T00:30:52.094Z,99773.13
2022-11-29T00:33:19.595Z,99786.16
2022-11-29T00:35:47.036Z,99788.34
2022-11-29T00:38:14.684Z,99786.34
2022-11-29T00:40:43.454Z,99786.03
2022-11-29T00:43:10.896Z,99787.81
2022-11-29T00:45:38.532Z,99788.59
2022-11-29T00:48:06.238Z,99781.03
2022-11-29T00:50:33.735Z,99779.03
2022-11-29T00:53:01.138Z,99784.47
2022-11-29T00:55:28.659Z,99781.78
2022-11-29T00:57:57.388Z,99775.00
2022-11-29T01:00:25.003Z,99776.94
2022-11-29T01:02:52.432Z,99778.28
2022-11-29T01:05:19.962Z,99782.09
2022-11-29T01:07:47.486Z,99776.63
2022-11-29T01:10:14.976Z,99776.19
2022-11-29T01:12:42.403Z,99778.38
2022-11-29T01:15:12.113Z,99783.63
2022-11-29T01:17:40.590Z,99785.84
2022-11-29T01:20:10.016Z,99784.03
2022-11-29T01:22:37.688Z,99782.53
2022-11-29T01:25:06.933Z,99784.03
2022-11-29T01:27:34.871Z,99784.56
2022-11-29T01:30:02.474Z,99798.31
2022-11-29T01:32:31.900Z,99786.22
2022-11-29T01:34:59.587Z,99787.72
2022-11-29T01:37:29.128Z,99788.09
2022-11-29T01:39:58.706Z,99789.25
2022-11-29T01:42:26.235Z,99802.16
2022-11-29T01:45:11.047Z,99794.69
2022-11-29T01:47:44.014Z,99792.22
2022-11-29T01:50:11.507Z,99800.31
2022-11-29T01:52:39.040Z,99805.63
2022-11-29T01:55:08.260Z,99804.97
2022-11-29T01:57:36.355Z,99794.72
2022-11-29T02:00:12.539Z,99800.16
2022-11-29T02:02:45.988Z,99802.00
2022-11-29T02:05:14.621Z,99798.03
2022-11-29T02:07:42.844Z,99801.34
2022-11-29T02:10:11.060Z,99806.19
2022-11-29T02:12:52.481Z,99798.25
2022-11-29T02:15:28.743Z,99798.72
2022-11-29T02:18:05.573Z,99802.19
2022-11-29T02:21:06.560Z,99801.03
2022-11-29T02:24:15.619Z,99810.31
2022-11-29T02:27:07.635Z,99814.13
2022-11-29T02:30:07.786Z,99816.28
2022-11-29T02:32:54.558Z,99811.16
2022-11-29T02:35:36.810Z,99813.97
2022-11-29T02:38:20.565Z,99811.47
2022-11-29T02:41:00.774Z,99825.06
2022-11-29T02:43:41.030Z,99825.38
2022-11-29T02:46:21.478Z,99819.59
2022-11-29T02:48:58.808Z,99823.75
2022-11-29T02:51:30.650Z,99820.91
2022-11-29T02:54:03.003Z,99822.09
2022-11-29T02:56:35.872Z,99832.34
2022-11-29T02:59:10.651Z,99834.16
2022-11-29T03:01:42.762Z,99834.69
2022-11-29T03:04:16.706Z,99829.06
2022-11-29T03:06:48.731Z,99843.94
2022-11-29T03:09:23.264Z,99843.63
2022-11-29T03:11:56.052Z,99848.59
2022-11-29T03:14:25.489Z,99848.59
2022-11-29T03:17:01.473Z,99851.72
2022-11-29T03:19:48.910Z,99851.38
2022-11-29T03:22:21.908Z,99852.88
2022-11-29T03:24:54.137Z,99855.13
2022-11-29T03:27:24.904Z,99856.63
2022-11-29T03:29:57.754Z,99858.75
2022-11-29T03:32:29.660Z,99864.06
2022-11-29T03:35:03.642Z,99862.72
2022-11-29T03:37:39.187Z,99861.72
2022-11-29T03:40:09.816Z,99860.06
2022-11-29T03:42:40.667Z,99865.88
2022-11-29T03:45:12.820Z,99860.91
2022-11-29T03:47:57.095Z,99865.22
2022-11-29T03:50:28.158Z,99870.31
2022-11-29T03:52:57.496Z,99869.66
2022-11-29T03:55:32.963Z,99873.50
2022-11-29T03:58:09.695Z,99875.13
2022-11-29T04:00:57.746Z,99875.63
2022-11-29T04:03:34.252Z,99877.44
2022-11-29T04:06:11.967Z,99881.63
2022-11-29T04:09:01.860Z,99887.91
2022-11-29T04:11:59.076Z,99881.97
2022-11-29T04:14:33.397Z,99880.81
2022-11-29T04:17:27.947Z,99881.00
2022-11-29T04:20:11.830Z,99879.31
2022-11-29T04:23:07.848Z,99877.66
2022-11-29T04:25:50.155Z,99871.69
2022-11-29T04:28:37.434Z,99879.75
2022-11-29T04:31:11.399Z,99880.25
2022-11-29T04:34:05.905Z,99888.72
2022-11-29T04:36:49.656Z,99885.72
2022-11-29T04:39:42.629Z,99891.19
2022-11-29T04:42:32.634Z,99893.66
2022-11-29T04:45:36.079Z,99901.13
2022-11-29T04:48:15.839Z,99903.78
2022-11-29T04:50:49.091Z,99906.13
2022-11-29T04:53:31.389Z,99900.84
2022-11-29T04:56:07.338Z,99913.44
2022-11-29T04:58:38.974Z,99911.16
2022-11-29T05:01:13.273Z,99919.94
2022-11-29T05:03:46.706Z,99918.63
2022-11-29T05:06:20.426Z,99918.78
2022-11-29T05:08:58.690Z,99918.63
2022-11-29T05:11:36.187Z,99926.25
2022-11-29T05:14:09.768Z,99927.88
2022-11-29T05:16:48.046Z,99928.41
2022-11-29T05:19:44.543Z,99932.75
2022-11-29T05:22:22.095Z,99931.56
2022-11-29T05:24:54.562Z,99933.25
2022-11-29T05:27:30.122Z,99931.72
2022-11-29T05:30:01.488Z,99934.63
2022-11-29T05:32:35.148Z,99935.72
2022-11-29T05:35:26.952Z,99939.69
2022-11-29T05:37:56.928Z,99931.13
2022-11-29T05:40:41.958Z,99932.38
2022-11-29T05:43:23.299Z,99939.81
2022-11-29T05:45:53.772Z,99947.34
2022-11-29T05:48:27.542Z,99952.28
2022-11-29T05:51:03.880Z,99948.38
2022-11-29T05:53:36.240Z,99954.28
2022-11-29T05:56:07.610Z,99952.72
2022-11-29T05:58:44.040Z,99953.69
2022-11-29T06:01:19.283Z,99964.47
2022-11-29T06:03:54.538Z,99959.09
2022-11-29T06:06:29.971Z,99959.38
2022-11-29T06:09:01.355Z,99966.75
2022-11-29T06:11:32.084Z,99965.03
2022-11-29T06:14:05.814Z,99962.50
2022-11-29T06:16:44.865Z,99963.47
2022-11-29T06:19:33.294Z,99968.78
2022-11-29T06:22:09.379Z,99977.00
2022-11-29T06:24:53.367Z,99984.16
2022-11-29T06:27:37.164Z,99985.41
2022-11-29T06:30:09.626Z,99990.38
2022-11-29T06:32:43.910Z,99984.50
2022-11-29T06:35:20.759Z,99993.16
2022-11-29T06:37:50.392Z,99998.31
2022-11-29T06:40:18.267Z,99996.13
2022-11-29T06:42:45.862Z,100000.34
2022-11-29T06:45:17.357Z,100004.00
2022-11-29T06:47:47.020Z,100008.97
2022-11-29T06:50:30.422Z,100011.94
2022-11-29T06:53:03.095Z,100013.63
2022-11-29T06:55:38.984Z,100018.75
2022-11-29T06:58:14.156Z,100021.28
2022-11-29T07:00:48.473Z,100022.47
2022-11-29T07:03:26.410Z,100029.25
2022-11-29T07:05:54.262Z,100027.13
2022-11-29T07:08:24.101Z,100024.84
2022-11-29T07:10:55.438Z,100025.66
2022-11-29T07:13:23.807Z,100024.84
2022-11-29T07:15:57.486Z,100037.13
2022-11-29T07:18:31.101Z,100040.47
2022-11-29T07:21:07.964Z,100037.81
2022-11-29T07:23:37.084Z,100041.25
2022-11-29T07:26:14.948Z,100034.63
2022-11-29T07:28:49.455Z,100045.72
2022-11-29T07:31:28.567Z,100038.91
2022-11-29T07:34:00.188Z,100034.94
2022-11-29T07:36:35.352Z,100029.31
2022-11-29T07:39:13.348Z,100031.13
2022-11-29T07:41:45.883Z,100036.66
2022-11-29T07:44:21.164Z,100046.53
2022-11-29T07:46:49.952Z,100050.41
2022-11-29T07:49:17.453Z,100046.38
2022-11-29T07:51:44.848Z,100050.28
2022-11-29T07:54:14.327Z,100051.94
2022-11-29T07:56:41.767Z,100050.16
2022-11-29T07:59:12.687Z,100055.38
2022-11-29T08:01:40.558Z,100061.78
2022-11-29T08:04:09.851Z,100063.25
2022-11-29T08:06:37.416Z,100066.41
2022-11-29T08:09:06.705Z,100062.66
2022-11-29T08:11:34.126Z,100068.34
2022-11-29T08:14:02.722Z,100067.66
2022-11-29T08:16:30.433Z,100068.09
2022-11-29T08:18:57.992Z,100073.75
2022-11-29T08:21:27.084Z,100076.28
2022-11-29T08:23:54.536Z,100077.88
2022-11-29T08:26:25.598Z,100078.22
2022-11-29T08:28:55.755Z,100078.75
2022-11-29T08:31:23.367Z,100081.09
2022-11-29T08:33:50.947Z,100075.47
2022-11-29T08:36:20.885Z,100079.47
2022-11-29T08:38:50.998Z,100093.41
2022-11-29T08:41:20.085Z,100084.81
2022-11-29T08:43:47.491Z,100085.78
2022-11-29T08:46:18.603Z,100090.31
2022-11-29T08:48:46.619Z,100087.66
2022-11-29T08:51:14.872Z,100089.78
2022-11-29T08:53:41.338Z,100088.31
2022-11-29T08:56:53.381Z,100097.47
2022-11-29T08:58:58.757Z,100101.16
2022-11-29T09:01:26.387Z,100100.16
2022-11-29T09:04:07.563Z,100097.81
2022-11-29T09:06:38.390Z,100098.69
2022-11-29T09:09:06.164Z,100099.50
2022-11-29T09:11:36.011Z,100110.25
2022-11-29T09:14:05.542Z,100115.75
2022-11-29T09:16:35.094Z,100111.78
2022-11-29T09:19:03.336Z,100113.94
2022-11-29T09:21:32.587Z,100122.72
2022-11-29T09:24:00.914Z,100123.56
2022-11-29T09:26:29.685Z,100132.84
2022-11-29T09:29:00.967Z,100138.34
2022-11-29T09:31:28.747Z,100135.16
2022-11-29T09:33:56.721Z,100140.00
2022-11-29T09:36:28.587Z,100140.00
2022-11-29T09:38:56.545Z,100143.47
2022-11-29T09:41:35.783Z,100153.13
2022-11-29T09:44:08.966Z,100146.47
2022-11-29T09:46:43.486Z,100152.28
2022-11-29T09:49:21.164Z,100148.31
2022-11-29T09:51:54.380Z,100145.81
2022-11-29T09:54:26.880Z,100152.59
2022-11-29T09:56:56.038Z,100153.13
2022-11-29T09:59:28.857Z,100157.75
2022-11-29T10:02:01.314Z,100159.38
2022-11-29T10:04:32.066Z,100161.25
2022-11-29T10:07:02.283Z,100151.59
2022-11-29T10:09:34.202Z,100156.25
2022-11-29T10:12:08.355Z,100159.25
2022-11-29T10:14:42.270Z,100162.06
2022-11-29T10:17:18.260Z,100155.59
2022-11-29T10:19:47.959Z,100163.41
2022-11-29T10:22:18.918Z,100159.91
2022-11-29T10:24:48.432Z,100160.09
2022-11-29T10:27:21.236Z,100152.97
2022-11-29T10:29:51.096Z,100157.75
2022-11-29T10:32:21.193Z,100150.63
2022-11-29T10:34:48.824Z,100155.78
2022-11-29T10:37:19.438Z,100152.75
2022-11-29T10:39:48.615Z,100153.13
2022-11-29T10:42:35.808Z,100155.13
2022-11-29T10:45:06.034Z,100157.09
2022-11-29T10:47:35.305Z,100163.88
2022-11-29T10:50:03.517Z,100172.72
2022-11-29T10:52:30.964Z,100161.09
2022-11-29T10:54:59.627Z,100167.41
2022-11-29T10:57:27.100Z,100171.56
2022-11-29T11:00:03.732Z,100167.06
2022-11-29T11:02:32.695Z,100163.06
2022-11-29T11:05:00.799Z,100169.03
2022-11-29T11:07:30.470Z,100159.25
2022-11-29T11:09:58.946Z,100166.38
2022-11-29T11:12:31.242Z,100160.06
2022-11-29T11:15:17.339Z,100165.75
2022-11-29T11:17:58.472Z,100162.59
2022-11-29T11:20:30.258Z,100162.59
2022-11-29T11:23:00.483Z,100159.91
2022-11-29T11:25:34.511Z,100155.59
2022-11-29T11:28:15.359Z,100154.06
2022-11-29T11:30:51.122Z,100154.34
2022-11-29T11:33:22.162Z,100158.13
2022-11-29T11:36:04.068Z,100158.09
2022-11-29T11:38:32.011Z,100159.94
2022-11-29T11:41:05.311Z,100160.28
2022-11-29T11:43:33.443Z,100160.16
2022-11-29T11:46:00.938Z,100162.34
2022-11-29T11:48:29.978Z,100168.81
2022-11-29T11:51:00.480Z,100165.84
2022-11-29T11:53:30.396Z,100171.00
2022-11-29T11:56:01.028Z,100168.69
2022-11-29T11:58:30.183Z,100180.81
2022-11-29T12:01:04.404Z,100175.03
2022-11-29T12:03:38.092Z,100175.72
2022-11-29T12:06:34.720Z,100179.19
2022-11-29T12:09:06.671Z,100182.50
2022-11-29T12:11:40.745Z,100187.03
2022-11-29T12:14:08.879Z,100184.50
2022-11-29T12:16:39.080Z,100187.34
2022-11-29T12:19:21.499Z,100182.69
2022-11-29T12:21:53.075Z,100189.00
2022-11-29T12:24:24.749Z,100190.81
2022-11-29T12:26:57.967Z,100184.19
2022-11-29T12:29:28.100Z,100194.78
2022-11-29T12:32:01.154Z,100196.94
2022-11-29T12:34:54.568Z,100197.25
2022-11-29T12:37:26.567Z,100196.72
2022-11-29T12:39:58.039Z,100199.56
2022-11-29T12:42:35.904Z,100208.72
2022-11-29T12:45:15.257Z,100208.41
2022-11-29T12:47:52.105Z,100206.75
2022-11-29T12:50:25.725Z,100210.41
2022-11-29T12:52:55.387Z,100209.53
2022-11-29T12:55:26.174Z,100212.88
2022-11-29T12:57:55.605Z,100215.06
2022-11-29T13:00:22.936Z,100216.22
2022-11-29T13:02:53.698Z,100213.59
2022-11-29T13:05:24.166Z,100216.22
2022-11-29T13:07:57.731Z,100214.72
2022-11-29T13:10:35.588Z,100222.38
2022-11-29T13:13:04.475Z,100215.53
2022-11-29T13:15:34.015Z,100229.63
2022-11-29T13:18:03.506Z,100231.78
2022-11-29T13:20:34.924Z,100227.31
2022-11-29T13:23:09.043Z,100226.78
2022-11-29T13:25:38.534Z,100226.78
2022-11-29T13:28:07.708Z,100235.28
2022-11-29T13:30:36.446Z,100232.94
2022-11-29T13:33:06.761Z,100233.94
2022-11-29T13:35:39.773Z,100230.63
2022-11-29T13:38:14.456Z,100231.13
2022-11-29T13:40:49.960Z,100237.75
2022-11-29T13:43:21.866Z,100235.41
2022-11-29T13:45:54.286Z,100232.16
2022-11-29T13:48:30.198Z,100240.94
2022-11-29T13:50:58.262Z,100235.81
2022-11-29T13:53:31.670Z,100235.63
2022-11-29T13:56:01.610Z,100240.59
2022-11-29T13:58:37.310Z,100238.63
2022-11-29T14:01:08.179Z,100240.78
2022-11-29T14:03:38.336Z,100241.28
2022-11-29T14:06:15.072Z,100241.44
2022-11-29T14:09:19.451Z,100245.44
2022-11-29T14:11:49.958Z,100241.63
2022-11-29T14:14:25.715Z,100243.28
2022-11-29T14:16:54.673Z,100249.44
2022-11-29T14:19:30.090Z,100246.47
2022-11-29T14:22:25.455Z,100250.25
2022-11-29T14:25:49.749Z,100251.09
2022-11-29T14:28:31.534Z,100245.28
2022-11-29T14:31:01.361Z,100258.56
2022-11-29T14:33:43.334Z,100251.78
2022-11-29T14:36:38.093Z,100254.94
2022-11-29T14:39:15.663Z,100256.97
2022-11-29T14:41:53.372Z,100250.50
2022-11-29T14:44:24.059Z,100249.97
2022-11-29T14:47:01.322Z,100258.28
2022-11-29T14:49:29.627Z,100256.13
2022-11-29T14:52:18.646Z,100258.13
2022-11-29T14:54:55.797Z,100259.78
2022-11-29T14:58:07.455Z,100262.75
2022-11-29T15:00:42.585Z,100267.59
2022-11-29T15:03:12.839Z,100267.88
2022-11-29T15:05:42.483Z,100268.84
2022-11-29T15:08:15.575Z,100257.91
2022-11-29T15:10:44.765Z,100259.56
2022-11-29T15:13:15.124Z,100262.22
2022-11-29T15:15:54.469Z,100265.88
2022-11-29T15:18:34.499Z,100265.03
2022-11-29T15:21:14.300Z,100265.66
2022-11-29T15:23:42.623Z,100259.84
2022-11-29T15:26:17.256Z,100259.00
2022-11-29T15:28:45.136Z,100264.81
2022-11-29T15:31:17.987Z,100268.19
2022-11-29T15:33:47.950Z,100275.78
2022-11-29T15:36:18.361Z,100269.63
2022-11-29T15:38:47.599Z,100280.56
2022-11-29T15:41:22.900Z,100271.63
2022-11-29T15:43:54.197Z,100270.97
2022-11-29T15:46:26.762Z,100273.13
2022-11-29T15:48:54.463Z,100272.97
2022-11-29T15:51:26.909Z,100278.09
2022-11-29T15:54:11.568Z,100278.09
2022-11-29T15:56:43.582Z,100278.28
2022-11-29T15:59:17.050Z,100280.56
2022-11-29T16:01:47.499Z,100279.25
2022-11-29T16:04:18.977Z,100292.03
2022-11-29T16:06:46.838Z,100281.88
2022-11-29T16:09:16.786Z,100286.69
2022-11-29T16:11:44.439Z,100292.09
2022-11-29T16:14:18.758Z,100286.31
2022-11-29T16:16:49.066Z,100292.75
2022-11-29T16:19:24.263Z,100301.09
2022-11-29T16:22:03.227Z,100299.03
2022-11-29T16:24:31.875Z,100299.66
2022-11-29T16:27:01.022Z,100303.47
2022-11-29T16:29:31.271Z,100304.34
2022-11-29T16:32:16.151Z,100302.81
2022-11-29T16:34:44.456Z,100316.75
2022-11-29T16:37:18.480Z,100309.63
2022-11-29T16:39:47.363Z,100310.16
2022-11-29T16:42:21.923Z,100305.91
2022-11-29T16:44:59.217Z,100305.03
2022-11-29T16:47:29.680Z,100309.19
2022-11-29T16:50:13.472Z,100312.50
2022-11-29T16:52:41.024Z,100310.63
2022-11-29T16:55:08.846Z,100309.47
2022-11-29T16:57:36.539Z,100310.03
2022-11-29T17:00:11.608Z,100312.69
2022-11-29T17:02:40.504Z,100305.50
2022-11-29T17:05:09.353Z,100308.53
2022-11-29T17:07:39.102Z,100318.63
2022-11-29T17:10:08.309Z,100311.53
2022-11-29T17:12:35.919Z,100319.50
2022-11-29T17:15:03.397Z,100323.41
2022-11-29T17:17:31.180Z,100332.63
2022-11-29T17:19:59.927Z,100324.56
2022-11-29T17:22:27.452Z,100332.00
2022-11-29T17:24:55.044Z,100338.69
2022-11-29T17:27:22.447Z,100334.84
2022-11-29T17:29:49.908Z,100340.00
2022-11-29T17:32:18.431Z,100346.50
2022-11-29T17:34:48.393Z,100350.78
2022-11-29T17:37:17.432Z,100344.94
2022-11-29T17:39:47.834Z,100346.09
2022-11-29T17:42:15.595Z,100344.59
2022-11-29T17:44:43.166Z,100350.56
2022-11-29T17:47:10.584Z,100344.28
2022-11-29T17:49:37.966Z,100349.09
2022-11-29T17:52:07.619Z,100343.84
2022-11-29T17:54:36.491Z,100347.03
2022-11-29T17:57:04.743Z,100346.09
2022-11-29T17:59:32.477Z,100346.41
2022-11-29T18:02:02.020Z,100346.94
2022-11-29T18:04:32.665Z,100350.75
2022-11-29T18:07:03.044Z,100346.72
2022-11-29T18:09:30.698Z,100352.53
2022-11-29T18:11:59.492Z,100347.44
2022-11-29T18:14:28.110Z,100353.56
2022-11-29T18:16:55.806Z,100351.22
2022-11-29T18:19:24.560Z,100354.56
2022-11-29T18:21:52.329Z,100362.03
2022-11-29T18:24:20.116Z,100362.09
2022-11-29T18:26:47.647Z,100355.88
2022-11-29T18:29:16.483Z,100361.22
2022-11-29T18:31:49.879Z,100368.75
2022-11-29T18:34:17.475Z,100364.66
2022-11-29T18:36:46.582Z,100365.69
2022-11-29T18:39:16.934Z,100372.34
2022-11-29T18:41:46.359Z,100367.41
2022-11-29T18:44:16.982Z,100372.72
2022-11-29T18:46:48.553Z,100370.41
2022-11-29T18:49:17.297Z,100370.53
2022-11-29T18:51:46.091Z,100373.72
2022-11-29T18:54:19.163Z,100373.06
2022-11-29T18:56:47.208Z,100375.03
2022-11-29T18:59:17.830Z,100372.22
2022-11-29T19:01:47.730Z,100378.34
2022-11-29T19:04:17.315Z,100383.59
2022-11-29T19:06:45.871Z,100371.19
2022-11-29T19:09:15.330Z,100368.38
2022-11-29T19:11:43.201Z,100371.38
2022-11-29T19:14:12.477Z,100374.88
2022-11-29T19:16:42.894Z,100378.59
2022-11-29T19:19:10.782Z,100381.53
2022-11-29T19:21:39.573Z,100376.44
2022-11-29T19:24:13.775Z,100374.31
2022-11-29T19:26:42.832Z,100375.19
2022-11-29T19:29:11.899Z,100372.50
2022-11-29T19:31:41.047Z,100381.25
2022-11-29T19:34:10.627Z,100378.28
2022-11-29T19:36:42.436Z,100384.97
2022-11-29T19:39:14.309Z,100377.72
2022-11-29T19:41:42.890Z,100381.63
2022-11-29T19:44:10.942Z,100385.81
2022-11-29T19:46:39.875Z,100389.50
2022-11-29T19:49:09.962Z,100383.88
2022-11-29T19:51:37.545Z,100385.34
2022-11-29T19:54:07.582Z,100387.47
2022-11-29T19:56:35.136Z,100389.59
2022-11-29T19:59:02.649Z,100390.94
2022-11-29T20:01:39.396Z,100391.00
2022-11-29T20:04:13.825Z,100390.94
2022-11-29T20:06:41.973Z,100390.16
2022-11-29T20:09:09.633Z,100395.91
2022-11-29T20:11:38.729Z,100389.97
2022-11-29T20:14:06.901Z,100394.34
2022-11-29T20:16:34.379Z,100389.19
2022-11-29T20:19:10.649Z,100393.97
2022-11-29T20:21:42.090Z,100406.91
2022-11-29T20:24:10.167Z,100400.16
2022-11-29T20:26:39.711Z,100394.84
2022-11-29T20:29:08.549Z,100399.47
2022-11-29T20:31:37.621Z,100404.47
2022-11-29T20:34:06.414Z,100399.38
2022-11-29T20:36:43.717Z,100404.81
2022-11-29T20:39:24.526Z,100406.16
2022-11-29T20:42:10.319Z,100407.41
2022-11-29T20:44:39.387Z,100409.19
2022-11-29T20:47:13.599Z,100409.75
2022-11-29T20:49:41.382Z,100406.91
2022-11-29T20:52:13.203Z,100400.59
2022-11-29T20:54:40.643Z,100406.75
2022-11-29T20:57:09.091Z,100406.88
2022-11-29T20:59:36.604Z,100412.94
2022-11-29T21:02:04.042Z,100410.94
2022-11-29T21:04:31.492Z,100413.72
2022-11-29T21:06:58.880Z,100414.84
2022-11-29T21:09:28.558Z,100414.94
2022-11-29T21:11:56.595Z,100408.16
2022-11-29T21:14:24.802Z,100414.78
2022-11-29T21:16:55.644Z,100415.25
2022-11-29T21:19:25.841Z,100422.41
2022-11-29T21:22:01.947Z,100414.22
2022-11-29T21:24:37.496Z,100413.28
2022-11-29T21:27:05.484Z,100413.88
2022-11-29T21:29:33.428Z,100416.03
2022-11-29T21:32:01.931Z,100419.34
2022-11-29T21:34:31.109Z,100413.59
2022-11-29T21:36:59.880Z,100416.69
2022-11-29T21:39:34.192Z,100411.91
2022-11-29T21:42:01.844Z,100411.88
2022-11-29T21:44:31.349Z,100417.41
2022-11-29T21:46:58.975Z,100420.59
2022-11-29T21:49:29.552Z,100424.13
2022-11-29T21:51:59.987Z,100422.25
2022-11-29T21:54:30.559Z,100426.94
2022-11-29T21:56:59.726Z,100433.09
2022-11-29T21:59:28.603Z,100432.78
2022-11-29T22:01:58.171Z,100428.47
2022-11-29T22:04:25.991Z,100431.63
2022-11-29T22:06:53.420Z,100432.16
2022-11-29T22:09:23.392Z,100437.31
2022-11-29T22:11:51.064Z,100433.13
2022-11-29T22:14:19.899Z,100436.28
2022-11-29T22:16:48.912Z,100440.53
2022-11-29T22:19:18.563Z,100436.69
2022-11-29T22:21:50.673Z,100442.19
2022-11-29T22:24:19.126Z,100442.91
2022-11-29T22:26:46.895Z,100445.91
2022-11-29T22:29:14.750Z,100445.44
2022-11-29T22:31:43.969Z,100450.44
2022-11-29T22:34:11.490Z,100448.63
2022-11-29T22:36:39.487Z,100451.63
2022-11-29T22:39:08.680Z,100458.97
2022-11-29T22:41:37.643Z,100460.00
2022-11-29T22:44:05.866Z,100450.25
2022-11-29T22:46:36.233Z,100455.31
2022-11-29T22:49:05.065Z,100459.50
2022-11-29T22:51:35.490Z,100457.53
2022-11-29T22:54:04.506Z,100459.50
2022-11-29T22:56:33.610Z,100460.19
2022-11-29T22:59:01.370Z,100458.38
2022-11-29T23:01:35.480Z,100462.53
2022-11-29T23:04:07.001Z,100464.16
2022-11-29T23:06:36.222Z,100464.47
2022-11-29T23:09:06.667Z,100469.03
2022-11-29T23:11:37.136Z,100464.69
2022-11-29T23:14:04.878Z,100470.75
2022-11-29T23:16:32.696Z,100469.03
2022-11-29T23:19:02.637Z,100481.25
2022-11-29T23:21:34.139Z,100474.16
2022-11-29T23:24:02.346Z,100472.16
2022-11-29T23:26:31.707Z,100469.94
2022-11-29T23:29:01.508Z,100471.63
2022-11-29T23:31:35.005Z,100472.28
2022-11-29T23:34:05.537Z,100472.22
2022-11-29T23:36:34.502Z,100469.72
2022-11-29T23:39:05.810Z,100463.25
2022-11-29T23:41:33.267Z,100466.53
2022-11-29T23:44:00.735Z,100463.59
2022-11-29T23:46:30.220Z,100468.47
2022-11-29T23:48:58.099Z,100463.34
2022-11-29T23:51:25.593Z,100472.81
2022-11-29T23:53:56.658Z,100469.47
2022-11-29T23:56:24.278Z,100467.88
2022-11-29T23:58:56.231Z,100466.91
